createdAt,value
2019-04-22T00:00:53.565Z,3.40
2019-04-22T00:03:22.675Z,3.70
2019-04-22T00:06:14.609Z,3.67
2019-04-22T00:08:49.220Z,3.40
2019-04-22T00:11:26.106Z,3.60
2019-04-22T00:16:22.620Z,3.67
2019-04-22T00:19:00.982Z,3.70
2019-04-22T00:23:53.104Z,3.27
2019-04-22T00:26:23.446Z,3.73
2019-04-22T00:31:49.412Z,3.53
2019-04-22T00:34:16.698Z,3.70
2019-04-22T00:36:52.655Z,3.73
2019-04-22T00:39:28.365Z,3.90
2019-04-22T00:41:55.245Z,4.20
2019-04-22T00:44:29.815Z,3.47
2019-04-22T00:46:54.129Z,3.70
2019-04-22T00:51:58.324Z,4.00
2019-04-22T00:54:31.125Z,3.83
2019-04-22T00:56:59.142Z,3.80
2019-04-22T00:59:23.590Z,3.87
2019-04-22T01:02:05.644Z,3.87
2019-04-22T01:04:34.570Z,3.43
2019-04-22T01:06:57.550Z,3.77
2019-04-22T01:09:30.058Z,3.90
2019-04-22T01:12:00.617Z,3.40
2019-04-22T01:14:28.280Z,3.70
2019-04-22T01:17:00.086Z,3.53
2019-04-22T01:19:38.748Z,3.53
2019-04-22T01:22:06.440Z,3.90
2019-04-22T01:24:32.348Z,3.83
2019-04-22T01:26:58.196Z,3.43
2019-04-22T01:29:26.204Z,3.73
2019-04-22T01:31:47.361Z,4.10
2019-04-22T01:34:28.891Z,3.35
2019-04-22T01:37:02.934Z,3.70
2019-04-22T01:39:44.376Z,3.77
2019-04-22T01:42:12.159Z,3.60
2019-04-22T01:44:47.122Z,3.77
2019-04-22T01:47:22.706Z,3.60
2019-04-22T01:49:46.387Z,3.77
2019-04-22T01:52:18.629Z,3.70
2019-04-22T01:54:48.553Z,4.40
2019-04-22T01:57:20.900Z,3.80
2019-04-22T01:59:40.467Z,3.50
2019-04-22T02:02:27.098Z,4.03
2019-04-22T02:04:53.217Z,3.90
2019-04-22T02:07:28.071Z,3.90
2019-04-22T02:09:49.720Z,3.30
2019-04-22T02:14:52.407Z,3.40
2019-04-22T02:17:25.254Z,3.63
2019-04-22T02:19:57.612Z,3.40
2019-04-22T02:22:42.860Z,4.10
2019-04-22T02:24:58.860Z,4.10
2019-04-22T02:27:32.544Z,3.90
2019-04-22T02:29:52.317Z,3.93
2019-04-22T02:35:03.686Z,4.30
2019-04-22T02:37:30.436Z,3.47
2019-04-22T02:40:03.664Z,3.80
2019-04-22T02:42:24.278Z,4.03
2019-04-22T02:45:18.460Z,3.63
2019-04-22T02:47:31.581Z,3.83
2019-04-22T02:50:07.430Z,3.80
2019-04-22T02:57:47.417Z,3.90
2019-04-22T03:00:18.422Z,3.67
2019-04-22T03:05:22.877Z,4.10
2019-04-22T03:07:41.136Z,4.05
2019-04-22T03:10:26.703Z,4.10
2019-04-22T03:15:07.918Z,4.40
2019-04-22T03:17:49.437Z,4.20
2019-04-22T03:20:09.405Z,6.37
2019-04-22T03:22:53.433Z,4.30
2019-04-22T03:27:42.799Z,3.87
2019-04-22T03:35:37.154Z,4.33
2019-04-22T03:37:52.643Z,3.93
2019-04-22T03:55:22.959Z,4.47
2019-04-22T04:00:35.539Z,5.90
2019-04-22T04:05:45.350Z,4.30
2019-04-22T04:08:20.156Z,4.37
2019-04-22T04:17:56.816Z,4.03
2019-04-22T04:20:36.439Z,4.37
2019-04-22T04:23:07.866Z,6.75
2019-04-22T04:28:24.271Z,3.90
2019-04-22T04:33:05.303Z,4.37
2019-04-22T04:35:40.522Z,4.30
2019-04-22T04:48:14.482Z,4.67
2019-04-22T04:50:55.243Z,4.40
2019-04-22T04:53:12.867Z,4.37
2019-04-22T04:55:35.155Z,4.50
2019-04-22T04:58:25.047Z,4.50
2019-04-22T05:03:21.348Z,4.80
2019-04-22T05:05:52.225Z,4.97
2019-04-22T05:13:13.508Z,4.60
2019-04-22T05:16:03.419Z,4.57
2019-04-22T05:21:09.568Z,4.57
2019-04-22T05:23:25.021Z,4.77
2019-04-22T05:25:40.849Z,4.20
2019-04-22T05:28:20.204Z,4.53
2019-04-22T05:30:39.578Z,4.87
2019-04-22T05:33:19.035Z,4.10
2019-04-22T05:35:46.347Z,4.67
2019-04-22T05:40:40.886Z,4.70
2019-04-22T05:43:22.635Z,4.73
2019-04-22T05:45:50.966Z,4.20
2019-04-22T05:48:18.919Z,4.53
2019-04-22T05:50:52.657Z,4.73
2019-04-22T05:53:20.128Z,4.27
2019-04-22T05:56:17.148Z,4.30
2019-04-22T05:58:25.847Z,4.47
2019-04-22T06:03:46.248Z,4.13
2019-04-22T06:06:15.064Z,4.50
2019-04-22T06:08:46.506Z,3.80
2019-04-22T06:11:17.342Z,3.90
2019-04-22T06:13:38.902Z,3.67
2019-04-22T06:16:20.475Z,3.47
2019-04-22T06:18:46.999Z,3.80
2019-04-22T06:21:20.264Z,3.70
2019-04-22T06:31:24.460Z,3.60
2019-04-22T06:33:56.480Z,3.40
2019-04-22T06:36:27.505Z,3.13
2019-04-22T06:39:10.549Z,3.47
2019-04-22T06:41:27.393Z,3.63
2019-04-22T06:43:58.467Z,3.50
2019-04-22T06:46:27.453Z,3.83
2019-04-22T06:48:54.764Z,3.63
2019-04-22T06:51:27.038Z,3.70
2019-04-22T06:53:59.135Z,3.57
2019-04-22T06:56:23.768Z,4.00
2019-04-22T06:59:14.715Z,4.07
2019-04-22T07:01:27.601Z,3.90
2019-04-22T07:03:57.034Z,3.97
2019-04-22T07:11:23.732Z,3.77
2019-04-22T07:14:02.964Z,3.03
2019-04-22T07:16:32.078Z,2.90
2019-04-22T07:19:01.921Z,3.10
2019-04-22T07:21:33.577Z,3.73
2019-04-22T07:24:22.790Z,3.00
2019-04-22T07:26:33.200Z,3.40
2019-04-22T07:29:04.178Z,2.93
2019-04-22T07:31:40.976Z,2.93
2019-04-22T07:34:16.320Z,3.23
2019-04-22T07:39:05.738Z,3.37
2019-04-22T07:41:37.889Z,2.67
2019-04-22T07:46:46.523Z,3.03
2019-04-22T07:49:10.716Z,2.83
2019-04-22T07:51:36.617Z,2.80
2019-04-22T07:56:44.011Z,2.63
2019-04-22T07:59:13.927Z,3.00
2019-04-22T08:01:35.490Z,3.33
2019-04-22T08:06:47.815Z,2.83
2019-04-22T08:09:21.521Z,3.07
2019-04-22T08:11:51.595Z,2.63
2019-04-22T08:14:21.803Z,2.80
2019-04-22T08:16:51.942Z,2.90
2019-04-22T08:19:20.355Z,2.60
2019-04-22T08:24:22.585Z,2.70
2019-04-22T08:26:54.783Z,2.43
2019-04-22T08:29:35.436Z,3.07
2019-04-22T08:31:56.594Z,2.77
2019-04-22T08:34:27.442Z,2.80
2019-04-22T08:37:26.225Z,2.50
2019-04-22T08:39:29.971Z,3.07
2019-04-22T08:41:55.773Z,3.03
2019-04-22T08:44:40.170Z,4.17
2019-04-22T08:47:07.112Z,2.50
2019-04-22T08:49:39.467Z,2.27
2019-04-22T08:52:01.030Z,2.60
2019-04-22T08:54:32.491Z,2.47
2019-04-22T08:57:07.241Z,2.33
2019-04-22T08:59:28.192Z,2.50
2019-04-22T09:02:09.308Z,1.97
2019-04-22T09:04:32.275Z,2.87
2019-04-22T09:07:12.712Z,2.50
2019-04-22T09:09:39.365Z,2.30
2019-04-22T09:12:12.621Z,2.77
2019-04-22T09:14:40.494Z,2.70
2019-04-22T09:17:13.345Z,2.70
2019-04-22T09:19:35.208Z,2.37
2019-04-22T09:22:15.689Z,2.20
2019-04-22T09:24:44.149Z,2.63
2019-04-22T09:27:19.197Z,2.40
2019-04-22T09:29:43.023Z,2.20
2019-04-22T09:34:46.937Z,2.27
2019-04-22T09:37:21.011Z,2.13
2019-04-22T09:39:51.812Z,1.80
2019-04-22T09:42:17.393Z,2.33
2019-04-22T09:45:02.065Z,2.13
2019-04-22T09:47:45.308Z,2.27
2019-04-22T09:49:55.433Z,1.93
2019-04-22T09:52:22.161Z,2.20
2019-04-22T09:55:00.271Z,1.87
2019-04-22T09:57:24.649Z,2.37
2019-04-22T10:00:00.639Z,2.27
2019-04-22T10:05:00.068Z,1.80
2019-04-22T10:07:25.905Z,1.83
2019-04-22T10:10:03.210Z,2.10
2019-04-22T10:12:33.217Z,1.97
2019-04-22T10:14:53.968Z,1.63
2019-04-22T10:17:29.530Z,1.53
2019-04-22T10:20:00.602Z,2.60
2019-04-22T10:25:05.093Z,2.27
2019-04-22T10:27:33.935Z,2.27
2019-04-22T10:30:03.104Z,1.40
2019-04-22T10:32:39.966Z,1.70
2019-04-22T10:35:08.203Z,2.03
2019-04-22T10:37:34.288Z,1.87
2019-04-22T10:40:07.725Z,1.40
2019-04-22T10:42:43.144Z,1.83
2019-04-22T10:45:14.475Z,1.67
2019-04-22T10:47:43.478Z,1.50
2019-04-22T10:50:14.461Z,1.43
2019-04-22T10:52:43.628Z,1.50
2019-04-22T10:55:13.783Z,1.57
2019-04-22T10:57:44.235Z,1.60
2019-04-22T11:00:13.728Z,1.60
2019-04-22T11:02:43.767Z,1.67
2019-04-22T11:05:14.344Z,1.53
2019-04-22T11:07:51.456Z,1.50
2019-04-22T11:10:27.361Z,2.23
2019-04-22T11:12:45.217Z,1.70
2019-04-22T11:15:15.843Z,2.13
2019-04-22T11:17:44.844Z,2.30
2019-04-22T11:20:15.491Z,1.93
2019-04-22T11:22:46.647Z,2.17
2019-04-22T11:25:16.091Z,2.10
2019-04-22T11:27:45.114Z,2.40
2019-04-22T11:30:20.027Z,2.60
2019-04-22T11:32:50.692Z,2.40
2019-04-22T11:35:19.588Z,2.60
2019-04-22T11:37:48.718Z,2.40
2019-04-22T11:40:26.431Z,2.37
2019-04-22T11:42:50.186Z,2.20
2019-04-22T11:45:21.530Z,2.37
2019-04-22T11:47:51.093Z,2.43
2019-04-22T11:50:21.874Z,2.57
2019-04-22T11:52:51.013Z,2.07
2019-04-22T11:55:20.230Z,2.13
2019-04-22T11:57:49.858Z,2.83
2019-04-22T12:00:27.033Z,2.70
2019-04-22T12:02:56.764Z,2.27
2019-04-22T12:05:28.140Z,2.50
2019-04-22T12:07:57.329Z,2.50
2019-04-22T12:10:34.776Z,2.13
2019-04-22T12:12:57.843Z,2.27
2019-04-22T12:15:26.889Z,2.30
2019-04-22T12:17:57.283Z,2.50
2019-04-22T12:20:27.582Z,2.13
2019-04-22T12:22:56.807Z,2.60
2019-04-22T12:25:36.138Z,2.30
2019-04-22T12:27:57.059Z,2.13
2019-04-22T12:30:27.722Z,2.10
2019-04-22T12:32:58.066Z,3.33
2019-04-22T12:35:28.372Z,2.53
2019-04-22T12:38:01.509Z,2.33
2019-04-22T12:40:40.550Z,1.70
2019-04-22T12:42:59.476Z,2.10
2019-04-22T12:45:30.037Z,2.43
2019-04-22T12:48:00.011Z,2.00
2019-04-22T12:50:33.819Z,2.00
2019-04-22T12:53:06.900Z,2.60
2019-04-22T12:55:32.287Z,2.57
2019-04-22T12:58:02.819Z,2.57
2019-04-22T13:00:32.410Z,2.20
2019-04-22T13:03:01.245Z,2.27
2019-04-22T13:05:31.344Z,2.20
2019-04-22T13:08:01.904Z,1.83
2019-04-22T13:10:41.687Z,2.00
2019-04-22T13:13:02.805Z,1.70
2019-04-22T13:15:32.984Z,1.90
2019-04-22T13:18:12.859Z,2.00
2019-04-22T13:20:32.498Z,1.60
2019-04-22T13:23:02.110Z,1.77
2019-04-22T13:25:32.419Z,1.90
2019-04-22T13:28:02.908Z,1.80
2019-04-22T13:30:32.593Z,1.53
2019-04-22T13:33:02.845Z,1.70
2019-04-22T13:35:32.000Z,1.43
2019-04-22T13:38:01.222Z,1.70
2019-04-22T13:40:30.823Z,1.60
2019-04-22T13:43:00.753Z,1.90
2019-04-22T13:45:29.805Z,3.17
2019-04-22T13:48:18.358Z,3.00
2019-04-22T13:51:03.468Z,1.67
2019-04-22T13:56:08.767Z,1.77
2019-04-22T13:58:14.048Z,2.07
2019-04-22T14:00:34.448Z,2.00
2019-04-22T14:03:24.636Z,2.37
2019-04-22T14:05:55.010Z,1.80
2019-04-22T14:08:24.982Z,2.30
2019-04-22T14:10:54.409Z,1.90
2019-04-22T14:13:23.846Z,2.43
2019-04-22T14:15:53.099Z,2.30
2019-04-22T14:18:23.191Z,1.60
2019-04-22T14:20:52.108Z,2.10
2019-04-22T14:23:22.432Z,2.07
2019-04-22T14:25:52.798Z,1.90
2019-04-22T14:28:23.879Z,1.50
2019-04-22T14:30:54.634Z,1.73
2019-04-22T14:33:24.398Z,1.70
2019-04-22T14:35:53.524Z,2.60
2019-04-22T14:38:23.806Z,1.57
2019-04-22T14:40:54.432Z,1.80
2019-04-22T14:43:55.213Z,1.60
2019-04-22T14:46:33.534Z,1.63
2019-04-22T14:48:49.612Z,1.57
2019-04-22T14:51:11.567Z,1.70
2019-04-22T14:53:44.776Z,2.60
2019-04-22T14:55:58.182Z,1.83
2019-04-22T14:58:28.821Z,1.30
2019-04-22T15:00:59.135Z,1.37
2019-04-22T15:03:28.126Z,1.63
2019-04-22T15:05:57.958Z,1.93
2019-04-22T15:08:27.051Z,1.70
2019-04-22T15:10:56.038Z,1.53
2019-04-22T15:13:25.354Z,2.13
2019-04-22T15:16:21.902Z,1.77
2019-04-22T15:19:15.989Z,2.27
2019-04-22T15:21:47.147Z,2.10
2019-04-22T15:24:27.455Z,1.87
2019-04-22T15:26:58.548Z,1.40
2019-04-22T15:29:27.701Z,1.80
2019-04-22T15:31:57.641Z,1.87
2019-04-22T15:34:28.191Z,2.07
2019-04-22T15:36:58.073Z,1.50
2019-04-22T15:39:27.359Z,1.80
2019-04-22T15:42:07.451Z,1.80
2019-04-22T15:44:28.047Z,1.67
2019-04-22T15:46:57.410Z,1.53
2019-04-22T15:49:27.874Z,1.70
2019-04-22T15:51:59.410Z,1.63
2019-04-22T15:54:27.809Z,1.87
2019-04-22T15:56:56.933Z,2.10
2019-04-22T15:59:45.036Z,1.67
2019-04-22T16:01:59.840Z,2.30
2019-04-22T16:04:28.421Z,1.60
2019-04-22T16:06:58.949Z,1.83
2019-04-22T16:09:28.986Z,2.17
2019-04-22T16:12:10.994Z,2.10
2019-04-22T16:14:36.622Z,1.60
2019-04-22T16:16:59.179Z,1.87
2019-04-22T16:19:28.181Z,1.40
2019-04-22T16:22:05.004Z,2.10
2019-04-22T16:24:54.136Z,2.03
2019-04-22T16:27:26.307Z,2.10
2019-04-22T16:29:55.451Z,2.40
2019-04-22T16:32:25.508Z,2.00
2019-04-22T16:34:54.694Z,1.77
2019-04-22T16:37:24.939Z,2.93
2019-04-22T16:39:54.751Z,2.50
2019-04-22T16:42:33.178Z,2.43
2019-04-22T16:44:55.462Z,2.77
2019-04-22T16:47:25.708Z,1.90
2019-04-22T16:49:55.323Z,2.15
2019-04-22T16:52:24.298Z,2.40
2019-04-22T16:54:53.088Z,1.83
2019-04-22T16:57:21.933Z,1.53
2019-04-22T16:59:50.848Z,2.03
2019-04-22T17:02:56.035Z,1.80
2019-04-22T17:05:37.978Z,1.90
2019-04-22T17:08:08.269Z,1.53
2019-04-22T17:10:37.902Z,2.03
2019-04-22T17:13:11.915Z,1.80
2019-04-22T17:15:39.785Z,1.80
2019-04-22T17:18:09.577Z,1.97
2019-04-22T17:20:38.680Z,2.00
2019-04-22T17:23:07.544Z,2.20
2019-04-22T17:25:36.380Z,2.00
2019-04-22T17:28:05.738Z,1.97
2019-04-22T17:30:35.894Z,2.37
2019-04-22T17:33:05.253Z,2.10
2019-04-22T17:35:34.145Z,2.13
2019-04-22T17:38:12.685Z,1.83
2019-04-22T17:40:52.190Z,2.23
2019-04-22T17:43:37.794Z,2.47
2019-04-22T17:46:04.509Z,2.20
2019-04-22T17:48:54.187Z,2.43
2019-04-22T17:51:29.901Z,2.62
2019-04-22T17:53:59.865Z,1.80
2019-04-22T17:56:27.642Z,2.07
2019-04-22T17:58:58.762Z,2.10
2019-04-22T18:01:25.220Z,2.00
2019-04-22T18:03:42.340Z,2.13
2019-04-22T18:06:17.581Z,1.83
2019-04-22T18:08:58.390Z,2.10
2019-04-22T18:11:33.600Z,1.90
2019-04-22T18:14:16.820Z,2.57
2019-04-22T18:16:32.630Z,2.20
2019-04-22T18:19:02.804Z,2.67
2019-04-22T18:21:27.486Z,2.57
2019-04-22T18:23:52.806Z,2.10
2019-04-22T18:26:24.577Z,2.07
2019-04-22T18:29:02.828Z,2.40
2019-04-22T18:31:27.108Z,2.43
2019-04-22T18:33:54.547Z,2.40
2019-04-22T18:36:29.195Z,2.00
2019-04-22T18:39:11.175Z,1.80
2019-04-22T18:41:36.085Z,2.47
2019-04-22T18:44:06.154Z,1.50
2019-04-22T18:46:37.109Z,2.13
2019-04-22T18:49:08.163Z,2.20
2019-04-22T18:51:45.330Z,2.03
2019-04-22T18:54:46.396Z,2.30
2019-04-22T18:57:15.680Z,2.27
2019-04-22T18:59:34.136Z,2.40
2019-04-22T19:02:06.503Z,2.93
2019-04-22T19:04:40.992Z,2.33
2019-04-22T19:07:31.102Z,2.43
2019-04-22T19:10:10.259Z,2.00
2019-04-22T19:12:28.518Z,1.73
2019-04-22T19:15:01.668Z,2.23
2019-04-22T19:17:35.065Z,2.37
2019-04-22T19:20:05.481Z,2.03
2019-04-22T19:22:29.852Z,2.20
2019-04-22T19:24:54.645Z,2.37
2019-04-22T19:27:24.803Z,2.43
2019-04-22T19:29:57.293Z,2.33
2019-04-22T19:32:35.071Z,2.10
2019-04-22T19:34:52.989Z,2.30
2019-04-22T19:37:28.450Z,2.40
2019-04-22T19:40:11.630Z,2.00
2019-04-22T19:42:38.738Z,2.20
2019-04-22T19:45:04.183Z,2.87
2019-04-22T19:47:38.713Z,2.43
2019-04-22T19:52:53.217Z,2.30
2019-04-22T19:55:12.725Z,2.27
2019-04-22T19:57:41.936Z,2.70
2019-04-22T20:00:33.969Z,2.40
2019-04-22T20:03:21.711Z,2.37
2019-04-22T20:05:53.034Z,2.80
2019-04-22T20:08:22.373Z,2.73
2019-04-22T20:10:52.250Z,2.43
2019-04-22T20:13:28.769Z,2.70
2019-04-22T20:15:45.043Z,2.47
2019-04-22T20:20:58.602Z,2.20
2019-04-22T20:23:22.909Z,3.07
2019-04-22T20:25:52.032Z,2.40
2019-04-22T20:28:32.679Z,2.13
2019-04-22T20:30:56.184Z,2.40
2019-04-22T20:33:36.916Z,2.77
2019-04-22T20:36:03.824Z,2.50
2019-04-22T20:38:32.639Z,2.60
2019-04-22T20:41:01.429Z,2.43
2019-04-22T20:43:44.872Z,2.33
2019-04-22T20:46:06.908Z,2.57
2019-04-22T20:48:40.796Z,2.40
2019-04-22T20:51:11.354Z,2.73
2019-04-22T20:53:44.076Z,2.50
2019-04-22T20:56:09.913Z,3.00
2019-04-22T20:58:46.287Z,2.60
2019-04-22T21:01:05.155Z,3.20
2019-04-22T21:03:33.605Z,2.77
2019-04-22T21:06:10.276Z,2.50
2019-04-22T21:08:52.373Z,2.70
2019-04-22T21:11:14.318Z,2.97
2019-04-22T21:13:40.972Z,2.73
2019-04-22T21:16:21.749Z,3.37
2019-04-22T21:18:43.774Z,2.57
2019-04-22T21:21:20.304Z,2.97
2019-04-22T21:23:45.856Z,3.23
2019-04-22T21:26:24.047Z,2.90
2019-04-22T21:28:53.835Z,3.23
2019-04-22T21:31:33.944Z,2.73
2019-04-22T21:33:59.738Z,3.10
2019-04-22T21:36:51.120Z,2.70
2019-04-22T21:38:59.130Z,3.13
2019-04-22T21:41:32.035Z,3.10
2019-04-22T21:44:05.490Z,2.50
2019-04-22T21:46:33.551Z,3.10
2019-04-22T21:49:05.826Z,3.20
2019-04-22T21:54:11.916Z,3.17
2019-04-22T21:57:02.523Z,3.10
2019-04-22T21:59:17.807Z,3.07
2019-04-22T22:02:01.689Z,3.20
2019-04-22T22:04:25.304Z,3.40
2019-04-22T22:06:47.901Z,3.33
2019-04-22T22:09:31.230Z,3.33
2019-04-22T22:11:57.783Z,2.87
2019-04-22T22:14:28.981Z,3.10
2019-04-22T22:16:54.741Z,3.00
2019-04-22T22:19:34.497Z,3.60
2019-04-22T22:22:13.533Z,3.60
2019-04-22T22:24:41.645Z,3.50
2019-04-22T22:27:04.948Z,3.73
2019-04-22T22:30:05.614Z,3.63
2019-04-22T22:32:11.784Z,3.47
2019-04-22T22:34:36.142Z,3.50
2019-04-22T22:37:00.273Z,4.33
2019-04-22T22:39:27.559Z,4.23
2019-04-22T22:41:47.935Z,3.90
2019-04-22T22:44:25.124Z,4.07
2019-04-22T22:47:03.564Z,3.83
2019-04-22T22:49:44.125Z,4.40
2019-04-22T22:52:41.345Z,4.33
2019-04-22T22:54:39.039Z,4.33
2019-04-22T22:57:19.515Z,4.10
2019-04-22T22:59:55.742Z,4.20
2019-04-22T23:02:08.123Z,4.10
2019-04-22T23:04:45.919Z,4.17
2019-04-22T23:07:17.921Z,4.10
2019-04-22T23:09:43.792Z,3.90
2019-04-22T23:12:22.581Z,4.13
2019-04-22T23:14:45.009Z,4.10
2019-04-22T23:17:01.872Z,4.73
2019-04-22T23:19:26.083Z,4.60
2019-04-22T23:22:01.587Z,4.47
2019-04-22T23:24:54.457Z,4.33
2019-04-22T23:27:29.311Z,3.97
2019-04-22T23:30:04.200Z,4.43
2019-04-22T23:32:35.797Z,4.53
2019-04-22T23:35:16.786Z,5.27
2019-04-22T23:37:50.011Z,4.37
2019-04-22T23:43:17.231Z,5.13
2019-04-22T23:45:26.788Z,4.50
2019-04-22T23:47:46.057Z,5.27
2019-04-22T23:50:27.879Z,4.80
2019-04-22T23:52:58.976Z,4.60
2019-04-22T23:55:35.419Z,4.70
2019-04-22T23:58:03.579Z,4.60
